createdAt,value
2023-03-18T00:01:57.532Z,84.8
2023-03-18T00:03:59.398Z,84.95
2023-03-18T00:06:00.752Z,84.91
2023-03-18T00:08:02.295Z,84.57
2023-03-18T00:10:04.193Z,84.13
2023-03-18T00:12:06.091Z,84.09
2023-03-18T00:14:07.310Z,84.16
2023-03-18T00:16:08.623Z,83.48
2023-03-18T00:18:09.622Z,83.15
2023-03-18T00:20:11.416Z,83.41
2023-03-18T00:22:13.020Z,83.69
2023-03-18T00:26:15.938Z,84.12
2023-03-18T00:28:18.896Z,84.45
2023-03-18T00:30:19.050Z,85.03
2023-03-18T00:32:20.396Z,85.61
2023-03-18T00:34:21.382Z,85.92
2023-03-18T00:36:23.343Z,86.13
2023-03-18T00:38:24.605Z,86.38
2023-03-18T00:40:25.739Z,86.91
2023-03-18T00:42:27.061Z,86.78
2023-03-18T00:44:29.017Z,86.35
2023-03-18T00:46:30.932Z,86.63
2023-03-18T00:48:32.721Z,86.22
2023-03-18T00:50:33.900Z,86.19
2023-03-18T00:52:35.106Z,86.38
2023-03-18T00:54:36.611Z,86.76
2023-03-18T00:58:39.603Z,84.57
2023-03-18T01:00:40.717Z,84.3
2023-03-18T01:02:42.140Z,84.49
2023-03-18T01:04:44.017Z,84.8
2023-03-18T01:08:47.453Z,84.36
2023-03-18T01:10:49.343Z,84.43
2023-03-18T01:12:51.217Z,84.7
2023-03-18T01:14:52.440Z,85.29
2023-03-18T01:16:54.285Z,85.35
2023-03-18T01:18:55.845Z,85.47
2023-03-18T01:20:57.412Z,85.81
2023-03-18T01:22:59.262Z,86.11
2023-03-18T01:25:00.890Z,86.08
2023-03-18T01:27:02.314Z,86.65
2023-03-18T01:29:04.196Z,86.75
2023-03-18T01:31:05.618Z,86.57
2023-03-18T01:33:07.457Z,86.8
2023-03-18T01:35:09.016Z,86.75
2023-03-18T01:37:10.474Z,86.24
2023-03-18T01:39:11.896Z,85.8
2023-03-18T01:41:13.586Z,85.99
2023-03-18T01:43:15.097Z,86.15
2023-03-18T01:45:16.870Z,86.21
2023-03-18T01:47:18.355Z,86.23
2023-03-18T01:51:21.797Z,85.44
2023-03-18T01:53:22.997Z,85.15
2023-03-18T01:55:24.709Z,84.99
2023-03-18T01:57:26.555Z,85.06
2023-03-18T01:59:27.829Z,85.02
2023-03-18T02:01:29.383Z,85.31
2023-03-18T02:03:30.566Z,85.54
2023-03-18T02:05:31.809Z,85.86
2023-03-18T02:07:33.562Z,85.92
2023-03-18T02:09:34.682Z,85.58
2023-03-18T02:11:36.104Z,85.43
2023-03-18T02:13:37.308Z,85.26
2023-03-18T02:15:39.134Z,85.4
2023-03-18T02:17:40.974Z,85.02
2023-03-18T02:19:42.056Z,85.31
2023-03-18T02:23:45.354Z,84.76
2023-03-18T02:25:46.691Z,84.41
2023-03-18T02:27:47.849Z,84.97
2023-03-18T02:29:49.492Z,85.59
2023-03-18T02:33:52.504Z,86.25
2023-03-18T02:35:54.334Z,85.96
2023-03-18T02:37:55.716Z,86.22
2023-03-18T02:39:57.294Z,87.46
2023-03-18T02:41:59.105Z,87.7
2023-03-18T02:44:00.267Z,88.05
2023-03-18T02:46:01.866Z,87.84
2023-03-18T02:48:03.273Z,87.87
2023-03-18T02:50:05.224Z,87.89
2023-03-18T02:52:06.681Z,87.85
2023-03-18T02:54:08.581Z,87.8
2023-03-18T02:56:10.218Z,87.92
2023-03-18T02:58:11.926Z,87.27
2023-03-18T03:00:13.645Z,87.07
2023-03-18T03:02:14.991Z,87.12
2023-03-18T03:04:16.489Z,87.02
2023-03-18T03:06:18.078Z,87.13
2023-03-18T03:08:20.020Z,87.41
2023-03-18T03:10:21.347Z,87.31
2023-03-18T03:12:22.323Z,87.33
2023-03-18T03:16:25.243Z,87.15
2023-03-18T03:18:26.510Z,87.66
2023-03-18T03:22:29.745Z,89.3
2023-03-18T03:24:31.396Z,89.97
2023-03-18T03:26:32.902Z,89.96
2023-03-18T03:28:34.341Z,89.93
2023-03-18T03:32:37.463Z,90.84
2023-03-18T03:34:38.397Z,90.17
2023-03-18T03:36:40.013Z,89.7
2023-03-18T03:38:41.363Z,89.25
2023-03-18T03:40:42.990Z,89.02
2023-03-18T03:42:44.882Z,88.74
2023-03-18T03:44:46.385Z,88.65
2023-03-18T03:46:47.823Z,88.85
2023-03-18T03:48:48.839Z,88.92
2023-03-18T03:50:49.891Z,89.06
2023-03-18T03:52:51.523Z,89.1
2023-03-18T03:54:53.350Z,89.12
2023-03-18T03:56:55.304Z,89.38
2023-03-18T03:58:56.903Z,89.19
2023-03-18T04:00:58.106Z,89.03
2023-03-18T04:02:59.865Z,89.22
2023-03-18T04:05:00.923Z,89.17
2023-03-18T04:07:02.098Z,89.21
2023-03-18T04:09:03.778Z,89.32
2023-03-18T04:11:05.673Z,88.8
2023-03-18T04:15:08.589Z,88.48
2023-03-18T04:17:10.455Z,88.13
2023-03-18T04:19:12.070Z,88.09
2023-03-18T04:21:13.564Z,88.03
2023-03-18T04:23:14.971Z,88.09
2023-03-18T04:25:16.666Z,88.22
2023-03-18T04:27:18.502Z,88.56
2023-03-18T04:30:03.897Z,89.19
2023-03-18T04:32:05.359Z,89.72
2023-03-18T04:34:07.266Z,89.75
2023-03-18T04:36:09.101Z,89.3
2023-03-18T04:38:10.277Z,88.63
2023-03-18T04:40:11.590Z,88.65
2023-03-18T04:42:13.465Z,88.67
2023-03-18T04:44:15.459Z,88.55
2023-03-18T04:46:17.296Z,88.67
2023-03-18T04:48:18.991Z,89.43
2023-03-18T04:52:21.364Z,90.15
2023-03-18T04:54:22.396Z,90.09
2023-03-18T04:56:23.470Z,90.23
2023-03-18T04:58:24.961Z,90.36
2023-03-18T05:00:26.165Z,90.26
2023-03-18T05:02:27.351Z,90.33
2023-03-18T05:04:28.757Z,90.12
2023-03-18T05:06:30.192Z,90.49
2023-03-18T05:08:31.205Z,90.64
2023-03-18T05:10:32.241Z,90.73
2023-03-18T05:12:33.912Z,90.29
2023-03-18T05:14:34.959Z,90.02
2023-03-18T05:16:37.016Z,90.29
2023-03-18T05:18:38.529Z,90.09
2023-03-18T05:20:39.814Z,90.32
2023-03-18T05:22:41.560Z,90.64
2023-03-18T05:24:42.748Z,91.14
2023-03-18T05:26:44.647Z,91.54
2023-03-18T05:28:46.148Z,91.41
2023-03-18T05:30:47.426Z,91.56
2023-03-18T05:34:50.129Z,91.77
2023-03-18T05:36:51.294Z,91.44
2023-03-18T05:38:53.240Z,91.01
2023-03-18T05:40:54.641Z,90.73
2023-03-18T05:42:56.789Z,90.55
2023-03-18T05:44:57.234Z,90.11
2023-03-18T05:46:58.318Z,89.93
2023-03-18T05:48:59.404Z,90.07
2023-03-18T05:51:01.322Z,90.07
2023-03-18T05:53:03.125Z,89.94
2023-03-18T05:55:04.174Z,89.98
2023-03-18T05:57:05.221Z,90.37
2023-03-18T05:59:06.894Z,90.95
2023-03-18T06:01:08.458Z,91.31
2023-03-18T06:03:10.107Z,91.41
2023-03-18T06:05:11.993Z,91.29
2023-03-18T06:07:13.440Z,91.62
2023-03-18T06:09:15.296Z,91.51
2023-03-18T06:11:16.932Z,91.32
2023-03-18T06:13:18.866Z,91.33
2023-03-18T06:15:20.423Z,90.92
2023-03-18T06:17:21.461Z,90.46
2023-03-18T06:19:22.842Z,90.49
2023-03-18T06:23:26.381Z,89.58
2023-03-18T06:25:27.391Z,89.24
2023-03-18T06:27:29.207Z,89.19
2023-03-18T06:29:30.337Z,89.22
2023-03-18T06:33:33.346Z,89.77
2023-03-18T06:35:35.738Z,89.66
2023-03-18T06:37:37.113Z,89.59
2023-03-18T06:39:40.120Z,89.79
2023-03-18T06:41:39.411Z,88.53
2023-03-18T06:43:41.198Z,88.61
2023-03-18T06:45:42.258Z,87.98
2023-03-18T06:47:43.221Z,87.47
2023-03-18T06:49:44.448Z,87.56
2023-03-18T06:51:46.307Z,87.67
2023-03-18T06:53:47.763Z,87.04
2023-03-18T06:55:49.486Z,85.19
2023-03-18T06:57:50.997Z,84
2023-03-18T06:59:52.650Z,83.46
2023-03-18T07:01:54.544Z,83.79
2023-03-18T07:03:55.960Z,84.22
2023-03-18T07:05:56.976Z,84.07
2023-03-18T07:07:57.980Z,83.83
2023-03-18T07:09:59.600Z,82.72
2023-03-18T07:12:00.823Z,82.68
2023-03-18T07:16:02.938Z,82.88
2023-03-18T07:18:04.366Z,81.16
2023-03-18T07:20:06.186Z,81.11
2023-03-18T07:22:07.222Z,81.98
2023-03-18T07:24:08.803Z,83.59
2023-03-18T07:26:10.371Z,84.04
2023-03-18T07:28:12.205Z,82.47
2023-03-18T07:30:13.743Z,82.02
2023-03-18T07:32:15.005Z,81.11
2023-03-18T07:34:16.180Z,78.76
2023-03-18T07:36:17.305Z,79.53
2023-03-18T07:38:18.641Z,78.58
2023-03-18T07:40:19.547Z,77.02
2023-03-18T07:42:21.382Z,74.86
2023-03-18T07:44:22.859Z,76.87
2023-03-18T07:48:25.420Z,78.83
2023-03-18T07:50:26.684Z,78.14
2023-03-18T07:52:28.131Z,78.73
2023-03-18T07:54:29.293Z,76.11
2023-03-18T07:58:31.276Z,77.85
2023-03-18T08:00:32.674Z,75.1
2023-03-18T08:02:33.833Z,74.51
2023-03-18T08:04:35.386Z,74.53
2023-03-18T08:06:36.597Z,73.35
2023-03-18T08:08:38.256Z,72.1
2023-03-18T08:10:39.230Z,70.42
2023-03-18T08:12:51.872Z,71.86
2023-03-18T08:14:42.116Z,74.09
2023-03-18T08:16:43.168Z,75.63
2023-03-18T08:18:44.165Z,74.96
2023-03-18T08:20:45.742Z,74.48
2023-03-18T08:22:47.120Z,74.08
2023-03-18T08:24:48.172Z,72.76
2023-03-18T08:26:49.027Z,73.8
2023-03-18T08:28:50.650Z,71.97
2023-03-18T08:30:51.470Z,71.96
2023-03-18T08:32:53.107Z,71.14
2023-03-18T08:34:54.390Z,70.47
2023-03-18T08:36:55.975Z,64.87
2023-03-18T08:38:57.358Z,63.23
2023-03-18T08:40:58.511Z,60.22
2023-03-18T08:43:00.006Z,61.94
2023-03-18T08:45:01.167Z,63.42
2023-03-18T08:47:02.241Z,58.95
2023-03-18T08:49:03.445Z,55.85
2023-03-18T08:51:05.093Z,58.31
2023-03-18T08:53:06.034Z,58.17
2023-03-18T08:57:08.863Z,58.51
2023-03-18T08:59:10.304Z,56.49
2023-03-18T09:01:12.028Z,57.14
2023-03-18T09:03:12.218Z,53.13
2023-03-18T09:05:12.990Z,50.39
2023-03-18T09:07:14.632Z,50.41
2023-03-18T09:09:16.112Z,51.65
2023-03-18T09:11:17.022Z,49.69
2023-03-18T09:13:18.492Z,48.37
2023-03-18T09:15:19.358Z,50.07
2023-03-18T09:17:20.487Z,51.09
2023-03-18T09:19:21.580Z,48.93
2023-03-18T09:21:23.798Z,49.07
2023-03-18T09:23:24.639Z,48.08
2023-03-18T09:25:25.915Z,47.38
2023-03-18T09:29:28.901Z,48.73
2023-03-18T09:31:29.873Z,47.48
2023-03-18T09:33:30.783Z,49.54
2023-03-18T09:35:31.902Z,48.7
2023-03-18T09:39:34.772Z,44.12
2023-03-18T09:41:36.446Z,44.94
2023-03-18T09:45:38.377Z,44.76
2023-03-18T09:47:40.606Z,44.31
2023-03-18T09:49:42.372Z,42.64
2023-03-18T09:51:43.914Z,43.08
2023-03-18T09:53:45.593Z,44.52
2023-03-18T09:55:46.430Z,42.61
2023-03-18T09:57:47.552Z,42.51
2023-03-18T09:59:49.027Z,42.71
2023-03-18T10:01:50.201Z,43.87
2023-03-18T10:03:51.194Z,43.2
2023-03-18T10:05:52.521Z,43.63
2023-03-18T10:07:54.079Z,42.99
2023-03-18T10:09:55.612Z,43.46
2023-03-18T10:11:56.521Z,42.79
2023-03-18T10:13:58.229Z,42.19
2023-03-18T10:15:59.895Z,41.9
2023-03-18T10:18:01.327Z,43.12
2023-03-18T10:20:02.537Z,42.38
2023-03-18T10:22:03.950Z,44.02
2023-03-18T10:24:04.966Z,42.66
2023-03-18T10:26:05.827Z,43.17
2023-03-18T10:28:07.438Z,41.29
2023-03-18T10:30:08.987Z,42.04
2023-03-18T10:32:10.730Z,43.6
2023-03-18T10:34:12.089Z,42.25
2023-03-18T10:38:15.033Z,44.05
2023-03-18T10:40:15.998Z,42.29
2023-03-18T10:42:17.492Z,42.85
2023-03-18T10:44:19.259Z,42.98
2023-03-18T10:46:20.264Z,43.38
2023-03-18T10:48:21.760Z,42.28
2023-03-18T10:50:22.641Z,41.5
2023-03-18T10:52:24.183Z,42.73
2023-03-18T10:54:25.392Z,39.98
2023-03-18T10:56:26.527Z,42.23
2023-03-18T10:58:28.276Z,39.56
2023-03-18T11:00:29.919Z,45.05
2023-03-18T11:02:31.671Z,41.11
2023-03-18T11:04:32.557Z,40.46
2023-03-18T11:06:33.541Z,41.12
2023-03-18T11:10:37.179Z,41.4
2023-03-18T11:12:38.622Z,41.65
2023-03-18T11:15:23.304Z,40.66
2023-03-18T11:17:24.396Z,40.37
2023-03-18T11:19:25.475Z,41.06
2023-03-18T11:21:26.775Z,42.44
2023-03-18T11:23:28.039Z,44.62
2023-03-18T11:25:29.242Z,42.87
2023-03-18T11:27:30.196Z,43.07
2023-03-18T11:29:31.656Z,41.01
2023-03-18T11:31:32.751Z,42.53
2023-03-18T11:33:33.963Z,40.9
2023-03-18T11:35:35.520Z,42.06
2023-03-18T11:37:36.937Z,42.15
2023-03-18T11:39:38.025Z,42.54
2023-03-18T11:41:39.585Z,41.95
2023-03-18T11:43:41.032Z,41.21
2023-03-18T11:45:42.498Z,42.85
2023-03-18T11:47:43.750Z,40.95
2023-03-18T11:49:45.484Z,42.33
2023-03-18T11:51:46.618Z,43.38
2023-03-18T11:53:48.331Z,43.54
2023-03-18T11:55:49.442Z,44.29
2023-03-18T11:57:50.691Z,42.92
2023-03-18T11:59:51.751Z,43.83
2023-03-18T12:03:54.764Z,43.26
2023-03-18T12:05:56.026Z,42.93
2023-03-18T12:07:56.898Z,42.68
2023-03-18T12:09:58.590Z,45.07
2023-03-18T12:14:01.151Z,44.63
2023-03-18T12:16:02.692Z,44.87
2023-03-18T12:18:04.422Z,40.69
2023-03-18T12:20:05.648Z,42.32
2023-03-18T12:22:06.996Z,42.07
2023-03-18T12:24:08.749Z,41.58
2023-03-18T12:26:10.021Z,42.23
2023-03-18T12:28:10.866Z,42.48
2023-03-18T12:30:12.338Z,44.1
2023-03-18T12:32:13.687Z,40.92
2023-03-18T12:36:15.996Z,39.92
2023-03-18T12:38:17.269Z,42.1
2023-03-18T12:40:18.878Z,44.11
2023-03-18T12:42:20.343Z,39.27
2023-03-18T12:46:22.742Z,40.56
2023-03-18T12:48:43.465Z,39.79
2023-03-18T12:50:26.701Z,41.91
2023-03-18T12:52:28.139Z,41.79
2023-03-18T12:54:29.649Z,40.44
2023-03-18T12:56:30.671Z,41.85
2023-03-18T12:58:31.554Z,40.57
2023-03-18T13:00:33.555Z,44.73
2023-03-18T13:02:34.906Z,42.82
2023-03-18T13:04:35.865Z,43.28
2023-03-18T13:06:36.669Z,42.98
2023-03-18T13:08:38.348Z,42.39
2023-03-18T13:10:40.077Z,42.86
2023-03-18T13:12:41.554Z,47.45
2023-03-18T13:14:42.981Z,43.17
2023-03-18T13:16:44.399Z,41.69
2023-03-18T13:18:45.597Z,42.99
2023-03-18T13:20:46.632Z,43.51
2023-03-18T13:22:47.469Z,43.03
2023-03-18T13:24:49.250Z,41.25
2023-03-18T13:28:52.542Z,41.29
2023-03-18T13:30:53.498Z,40.93
2023-03-18T13:32:55.057Z,40.5
2023-03-18T13:34:56.558Z,40.12
2023-03-18T13:36:57.842Z,39.4
2023-03-18T13:38:58.928Z,39.08
2023-03-18T13:41:00.246Z,40.66
2023-03-18T13:43:01.718Z,43.1
2023-03-18T13:45:02.733Z,41.34
2023-03-18T13:47:03.908Z,42.65
2023-03-18T13:49:05.039Z,41.01
2023-03-18T13:51:06.362Z,40.52
2023-03-18T13:53:07.883Z,41.43
2023-03-18T13:55:09.066Z,41.05
2023-03-18T13:57:10.656Z,40.22
2023-03-18T14:01:12.623Z,40.69
2023-03-18T14:03:13.501Z,43.52
2023-03-18T14:05:14.926Z,43.81
2023-03-18T14:07:15.735Z,42.84
2023-03-18T14:09:16.747Z,42.64
2023-03-18T14:11:18.041Z,42.84
2023-03-18T14:13:19.346Z,45.56
2023-03-18T14:17:21.768Z,46.07
2023-03-18T14:19:22.917Z,42.8
2023-03-18T14:21:24.379Z,43.54
2023-03-18T14:23:25.646Z,42.49
2023-03-18T14:27:27.625Z,42.03
2023-03-18T14:29:28.813Z,42.73
2023-03-18T14:31:30.334Z,42.87
2023-03-18T14:33:31.753Z,41.92
2023-03-18T14:35:33.464Z,40.65
2023-03-18T14:37:34.941Z,42.64
2023-03-18T14:39:36.679Z,41.6
2023-03-18T14:41:37.825Z,40.57
2023-03-18T14:43:38.967Z,41.8
2023-03-18T14:45:40.077Z,43.61
2023-03-18T14:47:41.300Z,42.19
2023-03-18T14:49:42.234Z,42.47
2023-03-18T14:51:43.199Z,43.71
2023-03-18T14:53:45.804Z,43.61
2023-03-18T14:55:45.817Z,41.09
2023-03-18T14:57:47.564Z,42.06
2023-03-18T14:59:49.181Z,44.24
2023-03-18T15:01:59.572Z,45.01
2023-03-18T15:03:51.281Z,43.95
2023-03-18T15:05:52.936Z,41.64
2023-03-18T15:09:55.418Z,41.52
2023-03-18T15:11:56.288Z,44.75
2023-03-18T15:13:59.968Z,42.13
2023-03-18T15:15:58.549Z,42.87
2023-03-18T15:18:00.345Z,44.78
2023-03-18T15:20:01.877Z,45.84
2023-03-18T15:22:03.118Z,43.79
2023-03-18T15:24:04.161Z,43.86
2023-03-18T15:26:05.051Z,43.13
2023-03-18T15:28:06.629Z,45.82
2023-03-18T15:30:08.427Z,43.78
2023-03-18T15:32:10.563Z,43.26
2023-03-18T15:34:10.678Z,42.8
2023-03-18T15:36:11.726Z,43.01
2023-03-18T15:38:12.790Z,44.98
2023-03-18T15:42:15.878Z,45.8
2023-03-18T15:44:17.200Z,43.49
2023-03-18T15:46:19.049Z,44.11
2023-03-18T15:48:20.179Z,43.21
2023-03-18T15:52:22.582Z,46.12
2023-03-18T15:54:23.645Z,44.73
2023-03-18T15:58:26.578Z,46.22
2023-03-18T16:00:27.674Z,44.89
2023-03-18T16:02:29.026Z,44.11
2023-03-18T16:04:30.394Z,44.43
2023-03-18T16:06:32.050Z,44.59
2023-03-18T16:08:33.290Z,45.63
2023-03-18T16:10:34.854Z,47.29
2023-03-18T16:12:36.062Z,45.85
2023-03-18T16:14:37.804Z,44.33
2023-03-18T16:16:38.710Z,44.09
2023-03-18T16:18:40.272Z,44.55
2023-03-18T16:20:41.192Z,44.19
2023-03-18T16:22:42.784Z,44.76
2023-03-18T16:24:44.212Z,46.77
2023-03-18T16:26:45.892Z,44.8
2023-03-18T16:28:48.451Z,47.32
2023-03-18T16:30:48.939Z,52.58
2023-03-18T16:32:50.397Z,51.81
2023-03-18T16:34:51.537Z,52.2
2023-03-18T16:36:52.837Z,52.97
2023-03-18T16:40:55.760Z,54.54
2023-03-18T16:42:57.593Z,52.66
2023-03-18T16:44:59.046Z,52.27
2023-03-18T16:47:00.334Z,51.65
2023-03-18T16:51:03.530Z,50.52
2023-03-18T16:53:04.399Z,50.69
2023-03-18T16:55:05.797Z,50.62
2023-03-18T16:57:07.447Z,51.77
2023-03-18T16:59:08.887Z,51.06
2023-03-18T17:01:10.705Z,51.08
2023-03-18T17:03:11.652Z,53.31
2023-03-18T17:05:13.442Z,54.5
2023-03-18T17:07:15.179Z,54.75
2023-03-18T17:09:16.959Z,53.7
2023-03-18T17:11:18.453Z,53.86
2023-03-18T17:13:20.804Z,54.32
2023-03-18T17:15:22.276Z,54.67
2023-03-18T17:17:23.184Z,54.63
2023-03-18T17:19:24.177Z,54.37
2023-03-18T17:21:25.300Z,54.1
2023-03-18T17:23:26.507Z,54.07
2023-03-18T17:25:27.857Z,53.89
2023-03-18T17:27:29.698Z,54.87
2023-03-18T17:29:31.167Z,56.57
2023-03-18T17:33:34.048Z,57.27
2023-03-18T17:35:35.202Z,56.16
2023-03-18T17:37:36.604Z,55.71
2023-03-18T17:39:38.122Z,54.83
2023-03-18T17:41:39.575Z,55.44
2023-03-18T17:43:40.486Z,55.37
2023-03-18T17:45:41.920Z,56.72
2023-03-18T17:47:43.411Z,56.64
2023-03-18T17:49:44.781Z,57.56
2023-03-18T17:51:46.530Z,58.14
2023-03-18T17:53:48.150Z,57.9
2023-03-18T17:55:49.189Z,58.97
2023-03-18T17:57:51.038Z,59.25
2023-03-18T17:58:34.849Z,58.99
2023-03-18T18:00:36.172Z,59.3
2023-03-18T18:02:37.592Z,60.88
2023-03-18T18:04:39.277Z,62.85
2023-03-18T18:06:40.884Z,62.14
2023-03-18T18:10:44.041Z,61.86
2023-03-18T18:12:47.827Z,62.1
2023-03-18T18:14:46.745Z,63.03
2023-03-18T18:16:48.464Z,62.75
2023-03-18T18:18:50.222Z,62.13
2023-03-18T18:20:51.405Z,62.41
2023-03-18T18:22:52.923Z,64.78
2023-03-18T18:24:54.048Z,65.75
2023-03-18T18:26:55.475Z,67.28
2023-03-18T18:28:57.200Z,65.83
2023-03-18T18:30:58.828Z,65.53
2023-03-18T18:33:00.270Z,65.45
2023-03-18T18:35:01.873Z,65.1
2023-03-18T18:37:03.561Z,66.23
2023-03-18T18:39:04.782Z,66.66
2023-03-18T18:41:05.945Z,66.94
2023-03-18T18:43:07.258Z,66.99
2023-03-18T18:45:09.096Z,67.85
2023-03-18T18:47:10.015Z,68.32
2023-03-18T18:49:11.746Z,67.13
2023-03-18T18:53:14.258Z,68.4
2023-03-18T18:55:15.179Z,69.47
2023-03-18T18:59:17.670Z,69.21
2023-03-18T19:01:18.960Z,68.64
2023-03-18T19:03:20.540Z,69.86
2023-03-18T19:05:21.693Z,69.75
2023-03-18T19:09:24.677Z,70.22
2023-03-18T19:11:25.611Z,70.89
2023-03-18T19:13:26.623Z,71
2023-03-18T19:15:28.237Z,72.94
2023-03-18T19:17:29.180Z,72.7
2023-03-18T19:19:30.817Z,73.17
2023-03-18T19:21:32.033Z,73.49
2023-03-18T19:23:33.450Z,73.41
2023-03-18T19:25:34.970Z,73.26
2023-03-18T19:27:35.856Z,72.84
2023-03-18T19:29:37.699Z,72.5
2023-03-18T19:31:39.069Z,72.29
2023-03-18T19:33:40.690Z,73.06
2023-03-18T19:35:42.122Z,72.45
2023-03-18T19:37:43.236Z,74.22
2023-03-18T19:39:45.030Z,74.26
2023-03-18T19:41:46.061Z,73.64
2023-03-18T19:43:47.636Z,73.78
2023-03-18T19:45:50.603Z,74.87
2023-03-18T19:47:50.862Z,75.66
2023-03-18T19:51:54.115Z,77.03
2023-03-18T19:53:55.640Z,76.61
2023-03-18T19:55:57.029Z,76.62
2023-03-18T19:57:58.466Z,76.69
2023-03-18T19:59:59.632Z,76.33
2023-03-18T20:02:00.787Z,75.94
2023-03-18T20:04:02.583Z,77.02
2023-03-18T20:06:04.403Z,77.46
2023-03-18T20:08:05.831Z,77.39
2023-03-18T20:10:07.015Z,77.7
2023-03-18T20:12:08.716Z,77.9
2023-03-18T20:14:10.625Z,77.97
2023-03-18T20:16:11.982Z,78.41
2023-03-18T20:18:13.390Z,78.59
2023-03-18T20:20:14.730Z,78.43
2023-03-18T20:22:15.986Z,77.93
2023-03-18T20:24:17.521Z,78.11
2023-03-18T20:26:19.302Z,77.29
2023-03-18T20:28:20.970Z,76.83
2023-03-18T20:30:22.072Z,76.72
2023-03-18T20:34:24.697Z,76.75
2023-03-18T20:36:26.207Z,77.26
2023-03-18T20:38:27.884Z,77.79
2023-03-18T20:40:29.493Z,77.74
2023-03-18T20:42:30.603Z,78.42
2023-03-18T20:44:32.394Z,79.2
2023-03-18T20:46:34.168Z,79.6
2023-03-18T20:48:35.175Z,79.58
2023-03-18T20:50:36.280Z,79.46
2023-03-18T20:52:38.140Z,79.73
2023-03-18T20:54:39.940Z,79.59
2023-03-18T20:56:40.976Z,79.67
2023-03-18T20:58:42.807Z,79.42
2023-03-18T21:00:44.298Z,79.33
2023-03-18T21:02:45.393Z,79.64
2023-03-18T21:06:47.861Z,80.17
2023-03-18T21:08:49.344Z,80.47
2023-03-18T21:10:51.261Z,80.95
2023-03-18T21:12:53.144Z,81.31
2023-03-18T21:16:55.955Z,82.63
2023-03-18T21:18:57.295Z,82.57
2023-03-18T21:20:58.878Z,82.78
2023-03-18T21:23:00.425Z,82.53
2023-03-18T21:25:01.535Z,82.78
2023-03-18T21:27:05.349Z,82.86
2023-03-18T21:29:04.761Z,82.89
2023-03-18T21:31:06.656Z,82.98
2023-03-18T21:33:07.766Z,83.16
2023-03-18T21:35:09.077Z,83.39
2023-03-18T21:37:11.006Z,83.54
2023-03-18T21:39:12.470Z,84.03
2023-03-18T21:41:13.590Z,84.46
2023-03-18T21:43:14.717Z,83.8
2023-03-18T21:45:15.750Z,83.5
2023-03-18T21:47:17.389Z,83.54
2023-03-18T21:49:18.348Z,83.57
2023-03-18T21:51:31.733Z,83.49
2023-03-18T21:53:20.781Z,83.61
2023-03-18T21:55:21.853Z,83.43
2023-03-18T21:57:23.768Z,83.36
2023-03-18T21:59:25.094Z,83.3
2023-03-18T22:01:26.100Z,83.19
2023-03-18T22:03:27.435Z,83.65
2023-03-18T22:05:28.971Z,83.9
2023-03-18T22:07:30.001Z,84.58
2023-03-18T22:09:31.520Z,84.39
2023-03-18T22:11:32.899Z,84.06
2023-03-18T22:15:36.174Z,84.03
2023-03-18T22:17:38.952Z,84.16
2023-03-18T22:19:39.095Z,84.29
2023-03-18T22:21:40.742Z,84.63
2023-03-18T22:23:42.021Z,84.95
2023-03-18T22:25:43.359Z,85.15
2023-03-18T22:27:44.481Z,85.19
2023-03-18T22:29:46.145Z,85.2
2023-03-18T22:31:47.478Z,85.28
2023-03-18T22:33:48.971Z,85.09
2023-03-18T22:35:50.228Z,85.1
2023-03-18T22:37:51.675Z,85.39
2023-03-18T22:39:52.638Z,85.66
2023-03-18T22:41:54.406Z,85.98
2023-03-18T22:43:55.496Z,86.08
2023-03-18T22:47:57.878Z,86.61
2023-03-18T22:49:59.611Z,87.31
2023-03-18T22:52:00.558Z,87.35
2023-03-18T22:54:01.718Z,87.42
2023-03-18T22:58:03.817Z,88.65
2023-03-18T23:00:05.489Z,86.72
2023-03-18T23:02:07.368Z,85.87
2023-03-18T23:04:09.025Z,85.53
2023-03-18T23:06:10.975Z,85.43
2023-03-18T23:08:12.193Z,85.38
2023-03-18T23:10:14.009Z,85.66
2023-03-18T23:12:15.487Z,86.03
2023-03-18T23:14:16.834Z,86.32
2023-03-18T23:16:18.084Z,86.36
2023-03-18T23:18:19.209Z,86.84
2023-03-18T23:20:20.168Z,87.51
2023-03-18T23:22:21.725Z,87.5
2023-03-18T23:24:23.296Z,87.68
2023-03-18T23:26:24.801Z,87.56
2023-03-18T23:28:26.118Z,87.41
2023-03-18T23:30:28.035Z,87.25
2023-03-18T23:32:29.956Z,87.16
2023-03-18T23:34:31.191Z,87.27
2023-03-18T23:36:32.413Z,86.88
2023-03-18T23:40:35.342Z,86.6
2023-03-18T23:42:37.216Z,86.6
2023-03-18T23:44:38.675Z,86.6
2023-03-18T23:46:39.953Z,86.72
2023-03-18T23:48:41.089Z,87.01
2023-03-18T23:50:42.319Z,86.93
2023-03-18T23:52:43.412Z,87.08
2023-03-18T23:54:44.479Z,87.7
2023-03-18T23:56:45.954Z,87.47
2023-03-18T23:58:47.217Z,87.07
